Corona, New Mexico
Current Conditions -  °F | °C
As of 10:08 PM on Monday 20 Oct 2014 (Local Time) from KCQC Reporting Station
Broken Clouds Broken Clouds  
Wind Chill: 50°   Ceiling: 2200
Heat Index: 50°   Visibility: 10mi
Dew Point: 43°   Wind: 0mph
Humidity: 77%   Direction: NA
Pressure: 30.26"   Gusts: NA
Location:  34.25°N, 105.6°W
Report Text: KCQC 210408Z AUTO 00000KT 10SM BKN022 10/06 A3026 RMK AO2 T01000061
Loading
Personal Weather Stations






























Interactive Weather Map
Tropical Storm Tracking
New forecast layout! Learn more

10-Day Weather Forecast

Advertisements
Track Severe Weather on mobile